Time;durP1;ratioP1;P1;durP2;ratioP2;P2;SDS_P1;SDS_P2;PMS_P1;PMS_P2;Temp;Humidity;BMP_temperature;BMP_pressure;BME280_temperature;BME280_humidity;BME280_pressure;Samples;Min_cycle;Max_cycle;Signal;HPM_P1;HPM_P2
2023/03/24 00:02:16;;;;;;;6.72;6.07;;;;;;;11.71;100.00;99744.13;5116028;27;20482;-56
2023/03/24 00:04:42;;;;;;;7.60;6.75;;;;;;;11.55;100.00;99713.44;5113052;28;20317;-56
2023/03/24 00:07:13;;;;;;;6.38;5.78;;;;;;;11.65;100.00;99729.50;5114405;27;20038;-56
2023/03/24 00:09:40;;;;;;;8.77;6.22;;;;;;;11.76;100.00;99737.38;5114051;28;20066;-57
2023/03/24 00:12:07;;;;;;;6.28;5.63;;;;;;;11.78;100.00;99722.13;5114280;27;20106;-56
2023/03/24 00:14:34;;;;;;;6.55;5.95;;;;;;;11.78;100.00;99724.78;5111642;28;20110;-57
2023/03/24 00:17:00;;;;;;;8.38;6.13;;;;;;;11.78;100.00;99719.47;5117509;27;20027;-56
2023/03/24 00:19:25;;;;;;;8.57;6.57;;;;;;;11.81;100.00;99719.19;5121697;27;20031;-56
2023/03/24 00:21:54;;;;;;;7.63;6.50;;;;;;;11.79;100.00;99713.19;5116399;27;20084;-56
2023/03/24 00:24:20;;;;;;;7.27;6.57;;;;;;;11.86;99.41;99712.69;5113912;28;20012;-57
2023/03/24 00:26:47;;;;;;;7.30;6.30;;;;;;;11.87;100.00;99722.34;5119763;27;20074;-57
2023/03/24 00:29:13;;;;;;;7.43;6.70;;;;;;;11.87;99.49;99715.19;5134670;27;20023;-56
2023/03/24 00:31:39;;;;;;;8.70;6.35;;;;;;;11.91;100.00;99713.09;5121826;27;20135;-57
2023/03/24 00:34:09;;;;;;;6.35;5.75;;;;;;;11.99;98.60;99714.13;5116410;27;20564;-57
2023/03/24 00:36:37;;;;;;;5.78;5.28;;;;;;;11.97;98.56;99710.78;5102523;27;20402;-56
2023/03/24 00:39:05;;;;;;;6.85;6.15;;;;;;;12.05;97.87;99710.09;5115933;27;20023;-56
2023/03/24 00:41:33;;;;;;;6.15;5.32;;;;;;;12.11;97.85;99690.03;5136541;27;20473;-56
2023/03/24 00:44:02;;;;;;;6.15;5.63;;;;;;;12.07;98.33;99700.13;5134005;27;20015;-57
2023/03/24 00:46:27;;;;;;;7.38;5.18;;;;;;;12.08;98.38;99679.66;5140611;27;20023;-57
2023/03/24 00:49:04;;;;;;;5.88;5.25;;;;;;;12.14;97.65;99684.44;5134063;27;20022;-57
2023/03/24 00:51:38;;;;;;;5.88;5.38;;;;;;;12.10;98.07;99686.53;5129658;27;20022;-57
2023/03/24 00:54:04;;;;;;;5.68;5.18;;;;;;;12.07;97.91;99664.66;5134179;27;20394;-56
2023/03/24 00:56:34;;;;;;;6.13;5.05;;;;;;;12.18;97.72;99677.88;5138271;27;20023;-56
2023/03/24 00:59:01;;;;;;;5.68;5.18;;;;;;;12.21;97.67;99678.44;5153633;27;20054;-57
2023/03/24 01:01:32;;;;;;;4.82;4.45;;;;;;;12.17;98.14;99668.19;5118074;27;20023;-57
2023/03/24 01:03:59;;;;;;;6.30;5.60;;;;;;;12.13;98.61;99654.28;5100319;27;20022;-57
2023/03/24 01:06:25;;;;;;;6.72;5.10;;;;;;;12.15;98.98;99667.50;5123117;27;20087;-56
2023/03/24 01:08:52;;;;;;;5.10;4.60;;;;;;;12.15;99.45;99673.66;5122870;27;20054;-56
2023/03/24 01:11:23;;;;;;;5.80;5.22;;;;;;;12.18;99.60;99683.22;5134924;27;20034;-57
2023/03/24 01:13:51;;;;;;;6.25;5.28;;;;;;;12.09;99.34;99658.22;5131107;27;20094;-57
2023/03/24 01:16:17;;;;;;;6.05;5.60;;;;;;;12.15;99.87;99652.34;5133817;27;20072;-56
2023/03/24 01:18:45;;;;;;;6.00;5.45;;;;;;;12.10;100.00;99657.22;5111324;27;20027;-58
2023/03/24 01:21:13;;;;;;;6.20;5.60;;;;;;;12.10;100.00;99651.91;5132935;27;20020;-57
2023/03/24 01:23:40;;;;;;;5.80;5.35;;;;;;;12.01;100.00;99656.22;5133274;27;20038;-57
2023/03/24 01:26:08;;;;;;;5.97;5.25;;;;;;;12.02;100.00;99647.22;5128115;27;20031;-57
2023/03/24 01:28:39;;;;;;;5.93;5.40;;;;;;;12.02;100.00;99635.72;5124504;27;20043;-57
2023/03/24 01:31:08;;;;;;;6.10;5.57;;;;;;;11.92;100.00;99640.22;5114250;27;20028;-57
2023/03/24 01:33:37;;;;;;;6.35;5.82;;;;;;;11.94;100.00;99640.88;5129879;27;20068;-57
2023/03/24 01:36:07;;;;;;;6.28;5.68;;;;;;;11.96;100.00;99639.78;5116028;27;20038;-56
2023/03/24 01:38:33;;;;;;;6.60;5.97;;;;;;;11.92;100.00;99626.88;5119306;27;20090;-57
2023/03/24 01:40:59;;;;;;;6.15;5.65;;;;;;;11.92;100.00;99635.72;5140259;27;20385;-57
2023/03/24 01:43:30;;;;;;;6.85;5.93;;;;;;;11.90;100.00;99636.81;5115704;27;20028;-57
2023/03/24 01:46:04;;;;;;;6.80;6.03;;;;;;;11.91;100.00;99627.84;5115043;27;20114;-56
2023/03/24 01:48:39;;;;;;;6.45;5.85;;;;;;;11.86;100.00;99625.59;5122504;27;20039;-56
2023/03/24 01:51:04;;;;;;;7.15;6.45;;;;;;;11.86;100.00;99630.09;5132106;27;20027;-57
2023/03/24 01:53:34;;;;;;;6.80;6.10;;;;;;;11.87;100.00;99624.63;5132397;27;20435;-56
2023/03/24 01:56:01;;;;;;;8.95;6.43;;;;;;;11.85;100.00;99621.22;5132745;27;20047;-56
2023/03/24 01:58:32;;;;;;;6.68;6.18;;;;;;;11.83;100.00;99615.19;5115302;27;20489;-56
2023/03/24 02:00:59;;;;;;;6.85;6.10;;;;;;;11.83;100.00;99610.69;5114295;27;20106;-57
2023/03/24 02:03:32;;;;;;;6.55;5.95;;;;;;;11.86;100.00;99619.44;5132518;27;20113;-56
2023/03/24 02:06:01;;;;;;;6.35;5.75;;;;;;;11.84;100.00;99608.88;5132358;27;20185;-56
2023/03/24 02:08:36;;;;;;;7.60;6.40;;;;;;;11.88;100.00;99612.97;5146825;27;20479;-57
2023/03/24 02:11:02;;;;;;;6.55;5.97;;;;;;;11.86;100.00;99595.47;5132272;27;20751;-56
2023/03/24 02:13:28;;;;;;;6.88;6.22;;;;;;;11.80;100.00;99600.31;5132457;27;20029;-56
2023/03/24 02:16:05;;;;;;;9.43;6.13;;;;;;;11.83;100.00;99599.19;5133196;27;20019;-56
2023/03/24 02:18:43;;;;;;;6.80;6.20;;;;;;;11.85;100.00;99596.38;5130928;27;20035;-56
2023/03/24 02:21:32;;;;;;;7.15;6.40;;;;;;;11.85;100.00;99599.91;5132590;27;20489;-56
2023/03/24 02:24:00;;;;;;;8.85;6.13;;;;;;;11.84;100.00;99603.53;5132191;27;20075;-56
2023/03/24 02:26:32;;;;;;;6.53;6.00;;;;;;;11.80;100.00;99610.13;5114540;27;20033;-56
2023/03/24 02:29:16;;;;;;;8.45;6.32;;;;;;;11.86;100.00;99609.63;5106182;28;20047;-56
2023/03/24 02:31:56;;;;;;;7.10;6.60;;;;;;;11.82;100.00;99616.16;5113519;27;20023;-56
2023/03/24 02:34:43;;;;;;;6.90;6.22;;;;;;;11.83;100.00;99604.53;5132972;27;20427;-56
2023/03/24 02:37:41;;;;;;;7.13;6.38;;;;;;;11.85;100.00;99613.25;5136537;27;20355;-56
2023/03/24 02:40:17;;;;;;;6.70;6.10;;;;;;;11.83;100.00;99604.53;5078582;27;20058;-56
2023/03/24 02:42:51;;;;;;;7.30;6.30;;;;;;;11.88;100.00;99598.81;5132243;27;20031;-57
2023/03/24 02:45:21;;;;;;;7.13;6.43;;;;;;;11.81;100.00;99603.81;5113152;28;20058;-56
2023/03/24 02:48:23;;;;;;;6.75;6.13;;;;;;;11.79;100.00;99611.09;5114415;27;20039;-56
2023/03/24 02:50:51;;;;;;;6.28;5.78;;;;;;;11.85;100.00;99631.88;5103132;28;20084;-56
2023/03/24 02:53:30;;;;;;;6.63;6.03;;;;;;;11.84;100.00;99627.50;5145845;27;20109;-57
2023/03/24 02:56:14;;;;;;;6.43;5.93;;;;;;;11.87;100.00;99629.94;5097031;28;20071;-56
2023/03/24 02:58:50;;;;;;;6.45;5.57;;;;;;;11.88;100.00;99623.63;5120056;28;20422;-56
2023/03/24 03:01:53;;;;;;;6.55;6.05;;;;;;;11.83;100.00;99652.47;5110975;28;20029;-56
2023/03/24 03:04:32;;;;;;;6.57;6.07;;;;;;;11.72;100.00;99649.91;5120720;27;20034;-57
2023/03/24 03:07:00;;;;;;;;;;;;;;;11.88;100.00;99676.91;5132521;27;20026;-56
2023/03/24 03:09:27;;;;;;;6.28;5.68;;;;;;;11.68;100.00;99662.66;5132726;27;19911;-56
2023/03/24 03:11:57;;;;;;;7.40;5.90;;;;;;;11.71;100.00;99681.03;5132089;27;20051;-56
2023/03/24 03:14:27;;;;;;;5.85;5.35;;;;;;;11.63;100.00;99666.69;5112563;28;20019;-56
2023/03/24 03:17:34;;;;;;;6.55;5.28;;;;;;;11.58;100.00;99697.22;5113365;27;20113;-56
2023/03/24 03:20:06;;;;;;;5.60;5.10;;;;;;;11.50;100.00;99699.69;5117832;27;20050;-56
2023/03/24 03:22:58;;;;;;;5.82;5.35;;;;;;;11.46;100.00;99711.56;5112806;28;20023;-56
2023/03/24 03:25:29;;;;;;;5.63;5.13;;;;;;;11.34;99.38;99700.16;5113561;27;20046;-56
2023/03/24 03:28:01;;;;;;;4.93;4.50;;;;;;;11.19;95.28;99709.44;5084312;28;20059;-56
2023/03/24 03:30:46;;;;;;;4.45;3.95;;;;;;;11.17;95.84;99710.53;5090414;28;20028;-56
2023/03/24 03:33:23;;;;;;;5.30;4.90;;;;;;;11.01;92.35;99727.78;5090372;28;20081;-56
2023/03/24 03:35:56;;;;;;;4.60;4.15;;;;;;;10.90;93.48;99743.78;5089447;28;20024;-56
2023/03/24 03:38:30;;;;;;;4.68;4.28;;;;;;;10.88;93.91;99765.19;5089364;28;20043;-56
2023/03/24 03:40:59;;;;;;;4.80;4.35;;;;;;;10.88;92.92;99777.63;5087299;28;20570;-56
2023/03/24 03:43:26;;;;;;;4.95;4.55;;;;;;;10.84;93.08;99769.06;5087265;28;20055;-56
2023/03/24 03:45:55;;;;;;;4.95;4.47;;;;;;;10.79;94.59;99775.72;5071921;28;20028;-56
2023/03/24 03:48:25;;;;;;;7.65;5.47;;;;;;;10.79;94.51;99789.88;5088315;28;20031;-57
2023/03/24 03:50:51;;;;;;;7.30;6.28;;;;;;;10.69;93.61;99791.59;5090279;28;20471;-56
2023/03/24 03:53:20;;;;;;;10.30;7.03;;;;;;;10.63;92.12;99797.41;5089175;28;20077;-56
2023/03/24 03:55:46;;;;;;;9.50;7.25;;;;;;;10.57;90.83;99792.56;5090099;28;20495;-56
2023/03/24 03:58:11;;;;;;;8.40;7.05;;;;;;;10.48;89.70;99796.81;5093139;28;20081;-56
2023/03/24 04:00:37;;;;;;;9.80;6.82;;;;;;;10.35;89.64;99788.09;5080127;28;20064;-56
2023/03/24 04:03:33;;;;;;;10.80;6.50;;;;;;;10.34;90.64;99803.22;5087276;28;20399;-57
2023/03/24 04:06:04;;;;;;;10.90;6.53;;;;;;;10.30;90.87;99800.94;5080974;28;20035;-56
2023/03/24 04:09:06;;;;;;;10.05;6.45;;;;;;;10.24;90.23;99821.69;5092435;28;20028;-56
2023/03/24 04:11:44;;;;;;;8.63;6.25;;;;;;;10.23;91.67;99819.13;5089744;28;20070;-56
2023/03/24 04:14:28;;;;;;;7.90;6.20;;;;;;;10.26;91.05;99829.50;5089339;28;20034;-56
2023/03/24 04:17:37;;;;;;;6.80;6.05;;;;;;;10.23;92.15;99840.38;5085841;28;20383;-56
2023/03/24 04:20:15;;;;;;;9.05;5.53;;;;;;;10.10;93.59;99858.25;5088892;28;20563;-56
2023/03/24 04:23:13;;;;;;;10.45;5.78;;;;;;;10.12;93.12;99859.00;5087340;28;20020;-56
2023/03/24 04:25:55;;;;;;;10.45;5.95;;;;;;;10.07;93.15;99867.31;5091111;28;20055;-57
2023/03/24 04:28:29;;;;;;;9.02;5.82;;;;;;;10.07;91.36;99855.84;5116550;27;20062;-56
2023/03/24 04:31:06;;;;;;;10.25;4.75;;;;;;;10.11;91.95;99862.59;5124990;27;20066;-56
2023/03/24 04:33:37;;;;;;;9.70;5.65;;;;;;;10.05;91.70;99868.38;5130473;27;20533;-56
2023/03/24 04:36:15;;;;;;;10.25;6.85;;;;;;;10.07;91.06;99880.59;5120663;27;20035;-56
2023/03/24 04:38:44;;;;;;;11.80;6.18;;;;;;;10.02;91.03;99877.44;5134215;27;20031;-56
2023/03/24 04:41:11;;;;;;;11.43;5.85;;;;;;;10.00;91.38;99882.03;5106963;28;20035;-56
2023/03/24 04:43:37;;;;;;;10.45;5.88;;;;;;;9.86;91.42;99869.78;5142974;27;20026;-56
2023/03/24 04:46:05;;;;;;;11.13;6.07;;;;;;;10.00;90.23;99884.69;5113456;27;20034;-56
2023/03/24 04:48:33;;;;;;;9.88;6.25;;;;;;;9.91;90.83;99888.00;5132774;27;20037;-56
2023/03/24 04:51:02;;;;;;;7.07;5.57;;;;;;;9.93;90.47;99899.38;5133828;27;20408;-57
2023/03/24 04:53:28;;;;;;;9.40;6.32;;;;;;;9.88;89.53;99896.22;5133782;27;20380;-56
2023/03/24 04:56:09;;;;;;;13.63;7.15;;;;;;;9.91;90.74;99896.84;5131563;27;20015;-56
2023/03/24 04:58:37;;;;;;;9.40;6.30;;;;;;;9.89;91.40;99889.97;5123089;27;20038;-56
2023/03/24 05:01:04;;;;;;;10.93;6.53;;;;;;;9.96;88.83;99899.16;5132899;27;20023;-56
2023/03/24 05:03:30;;;;;;;9.32;6.30;;;;;;;9.80;90.02;99899.47;5114789;27;20019;-56
2023/03/24 05:05:56;;;;;;;12.32;6.53;;;;;;;9.84;89.58;99906.22;5133486;27;20019;-56
2023/03/24 05:08:21;;;;;;;12.65;7.15;;;;;;;9.81;90.22;99898.50;5104724;27;20053;-56
2023/03/24 05:10:47;;;;;;;12.23;6.25;;;;;;;9.89;88.29;99908.56;5133492;27;20539;-56
2023/03/24 05:13:13;;;;;;;12.88;7.00;;;;;;;9.91;88.19;99911.91;5133711;27;20027;-56
2023/03/24 05:15:39;;;;;;;10.50;6.20;;;;;;;9.78;89.42;99912.84;5132918;27;20084;-56
2023/03/24 05:18:04;;;;;;;15.25;6.63;;;;;;;9.75;90.13;99918.38;5128870;27;20023;-57
2023/03/24 05:20:32;;;;;;;13.35;7.05;;;;;;;9.69;90.23;99925.97;5114105;27;20066;-56
2023/03/24 05:23:00;;;;;;;12.23;7.20;;;;;;;9.69;90.25;99933.94;5133506;27;20095;-56
2023/03/24 05:25:26;;;;;;;10.20;6.53;;;;;;;9.66;90.67;99936.81;5135655;27;20019;-56
2023/03/24 05:27:51;;;;;;;12.90;6.82;;;;;;;9.72;89.28;99929.25;5116085;27;20043;-56
2023/03/24 05:30:19;;;;;;;12.50;7.72;;;;;;;9.65;89.57;99940.44;5112579;27;20037;-57
2023/03/24 05:32:44;;;;;;;12.10;6.97;;;;;;;9.74;88.64;99939.75;5133236;27;20015;-56
2023/03/24 05:35:13;;;;;;;15.18;7.40;;;;;;;9.70;90.34;99946.25;5132102;27;20023;-56
2023/03/24 05:37:40;;;;;;;15.90;7.75;;;;;;;9.69;89.69;99932.13;5128963;27;20130;-56
2023/03/24 05:40:07;;;;;;;13.77;7.32;;;;;;;9.64;90.01;99922.81;5133506;27;20019;-56
2023/03/24 05:42:32;;;;;;;14.73;6.72;;;;;;;9.61;90.62;99945.09;5114527;27;20050;-56
2023/03/24 05:44:57;;;;;;;19.05;6.28;;;;;;;9.72;89.35;99952.28;5132439;27;20015;-57
2023/03/24 05:47:26;;;;;;;17.75;6.80;;;;;;;9.66;88.49;99942.97;5132827;27;20509;-57
2023/03/24 05:49:53;;;;;;;17.45;7.18;;;;;;;9.75;88.21;99952.91;5130565;27;20098;-56
2023/03/24 05:52:21;;;;;;;13.52;7.72;;;;;;;9.80;87.71;99967.69;5131233;27;20050;-57
2023/03/24 05:54:50;;;;;;;17.63;7.78;;;;;;;9.72;89.09;99962.91;5128450;27;20435;-56
2023/03/24 05:57:16;;;;;;;14.70;6.93;;;;;;;9.60;89.20;99959.34;5114691;27;20020;-56
2023/03/24 05:59:45;;;;;;;14.20;7.38;;;;;;;9.66;88.61;99966.03;5132096;27;20355;-56
2023/03/24 06:02:10;;;;;;;10.90;7.20;;;;;;;9.70;87.74;99976.28;5129092;27;20030;-56
2023/03/24 06:04:35;;;;;;;18.45;7.60;;;;;;;9.76;87.10;99967.91;5112083;27;20386;-57
2023/03/24 06:07:01;;;;;;;13.25;6.32;;;;;;;9.67;87.57;99968.56;5111983;27;20037;-56
2023/03/24 06:09:31;;;;;;;11.10;7.43;;;;;;;9.77;86.50;99966.09;5113434;27;20067;-56
2023/03/24 06:11:57;;;;;;;;;;;;;;;9.87;87.44;99968.91;5113899;27;20023;-56
2023/03/24 06:14:22;;;;;;;14.57;7.45;;;;;;;9.76;86.80;99975.00;5134125;27;19915;-57
2023/03/24 06:16:49;;;;;;;14.68;6.45;;;;;;;9.81;85.60;99959.56;5131895;27;20027;-57
2023/03/24 06:19:15;;;;;;;18.83;7.45;;;;;;;9.82;85.81;99979.84;5132200;27;20435;-56
2023/03/24 06:21:41;;;;;;;12.70;6.90;;;;;;;9.77;87.36;99984.69;5114052;27;20027;-56
2023/03/24 06:24:06;;;;;;;13.73;6.78;;;;;;;9.80;86.81;99973.81;5135933;27;20226;-56
2023/03/24 06:26:32;;;;;;;12.80;6.95;;;;;;;9.82;86.26;99984.31;5132262;27;20043;-54
2023/03/24 06:28:58;;;;;;;13.35;7.00;;;;;;;9.86;86.10;99999.09;5113685;28;20106;-56
2023/03/24 06:31:29;;;;;;;16.25;7.82;;;;;;;9.83;87.23;99986.88;5113820;27;20115;-57
2023/03/24 06:33:54;;;;;;;12.93;6.60;;;;;;;9.89;85.93;99993.53;5121775;27;20413;-56
2023/03/24 06:36:22;;;;;;;12.75;7.18;;;;;;;9.91;85.80;99996.91;5115944;27;20029;-56
2023/03/24 06:38:47;;;;;;;18.70;7.18;;;;;;;9.83;86.70;100004.63;5135652;27;20128;-56
2023/03/24 06:41:13;;;;;;;17.67;7.35;;;;;;;9.80;85.75;100004.84;5137522;27;20493;-56
2023/03/24 06:43:38;;;;;;;18.63;7.30;;;;;;;9.85;85.81;100014.16;5132364;27;20030;-56
2023/03/24 06:46:06;;;;;;;20.88;7.53;;;;;;;9.82;86.51;100000.25;5113148;28;20172;-56
2023/03/24 06:48:32;;;;;;;13.88;6.95;;;;;;;9.88;87.41;100008.63;5114146;27;20401;-56
2023/03/24 06:51:02;;;;;;;18.17;7.97;;;;;;;9.96;86.08;100018.69;5117616;28;20023;-56
2023/03/24 06:53:28;;;;;;;15.38;7.38;;;;;;;9.98;86.71;100017.59;5120487;27;20019;-56
2023/03/24 06:55:53;;;;;;;21.67;8.43;;;;;;;10.07;85.56;100010.78;5113011;28;20022;-56
2023/03/24 06:58:18;;;;;;;17.10;8.32;;;;;;;10.07;85.93;100021.41;5132188;27;20019;-57
2023/03/24 07:00:45;;;;;;;16.60;8.00;;;;;;;10.07;86.53;100012.59;5121763;27;20437;-56
2023/03/24 07:03:12;;;;;;;18.67;7.53;;;;;;;10.02;84.27;99986.34;5116643;27;20109;-56
2023/03/24 07:05:43;;;;;;;17.05;7.22;;;;;;;10.24;85.82;100017.47;5140682;27;20061;-57
2023/03/24 07:08:10;;;;;;;20.88;7.72;;;;;;;10.32;84.26;100016.91;5113746;28;20049;-56
2023/03/24 07:10:38;;;;;;;21.58;8.35;;;;;;;10.38;84.26;100019.13;5131744;27;20030;-56
2023/03/24 07:13:04;;;;;;;16.40;6.82;;;;;;;10.45;84.83;100023.03;5131978;27;20537;-56
2023/03/24 07:15:30;;;;;;;14.70;6.57;;;;;;;10.55;83.21;100031.97;5145269;27;20102;-56
2023/03/24 07:17:56;;;;;;;14.27;7.20;;;;;;;10.57;82.80;100032.72;5131780;27;20111;-57
2023/03/24 07:20:23;;;;;;;12.82;7.97;;;;;;;10.64;82.74;100025.13;5131641;27;20377;-57
2023/03/24 07:22:49;;;;;;;19.13;7.50;;;;;;;10.67;82.95;100032.84;5132143;27;20054;-57
2023/03/24 07:25:18;;;;;;;19.02;7.60;;;;;;;10.76;83.08;100048.09;5111724;27;20110;-56
2023/03/24 07:27:46;;;;;;;14.25;7.15;;;;;;;10.80;81.58;100030.13;5134127;27;20043;-56
2023/03/24 07:30:12;;;;;;;15.48;7.40;;;;;;;10.84;83.04;100043.03;5109589;27;20037;-57
2023/03/24 07:32:38;;;;;;;15.50;7.00;;;;;;;10.90;82.26;100050.56;5134436;27;20051;-56
2023/03/24 07:35:06;;;;;;;19.20;7.63;;;;;;;10.99;82.00;100049.00;5135166;27;20055;-56
2023/03/24 07:37:32;;;;;;;15.68;7.15;;;;;;;11.01;81.37;100055.06;5112973;27;20030;-56
2023/03/24 07:39:59;;;;;;;19.55;7.53;;;;;;;10.87;81.20;100055.25;5135063;27;20027;-56
2023/03/24 07:42:25;;;;;;;18.73;7.70;;;;;;;10.80;81.99;100062.88;5145218;27;20031;-56
2023/03/24 07:44:50;;;;;;;16.13;7.72;;;;;;;10.69;83.05;100068.16;5116063;27;20079;-57
2023/03/24 07:47:17;;;;;;;16.25;7.22;;;;;;;10.72;82.86;100057.28;5116753;27;20027;-56
2023/03/24 07:49:42;;;;;;;18.05;7.60;;;;;;;10.76;83.70;100058.75;5096314;27;20468;-57
2023/03/24 07:52:08;;;;;;;23.25;7.80;;;;;;;10.81;83.73;100061.06;5141737;27;20019;-56
2023/03/24 07:54:33;;;;;;;21.35;7.60;;;;;;;10.96;83.77;100059.88;5117464;27;20023;-56
2023/03/24 07:57:00;;;;;;;18.27;7.05;;;;;;;11.02;83.47;100048.75;5113529;27;20102;-56
2023/03/24 07:59:26;;;;;;;20.85;7.18;;;;;;;11.02;82.73;100051.41;5134624;27;20027;-56
2023/03/24 08:01:52;;;;;;;17.15;7.13;;;;;;;11.12;81.00;100067.53;5131555;27;20038;-56
2023/03/24 08:04:17;;;;;;;19.58;8.27;;;;;;;11.13;81.78;100067.41;5134413;27;20397;-56
2023/03/24 08:06:43;;;;;;;18.95;7.70;;;;;;;11.39;82.28;100087.63;5118361;27;20489;-56
2023/03/24 08:09:10;;;;;;;21.83;6.82;;;;;;;11.60;81.00;100083.25;5134965;27;20031;-57
2023/03/24 08:11:36;;;;;;;19.65;6.70;;;;;;;11.57;79.53;100083.50;5132553;27;20038;-57
2023/03/24 08:14:02;;;;;;;15.35;6.63;;;;;;;11.58;79.67;100098.50;5120998;27;20121;-57
2023/03/24 08:16:29;;;;;;;14.95;6.70;;;;;;;11.45;79.90;100085.31;5127782;27;20019;-56
2023/03/24 08:18:57;;;;;;;14.63;6.65;;;;;;;11.49;79.86;100092.09;5128273;27;20050;-57
2023/03/24 08:21:23;;;;;;;15.85;6.70;;;;;;;11.71;78.55;100096.56;5129886;27;20121;-57
2023/03/24 08:23:49;;;;;;;17.25;6.90;;;;;;;11.87;76.50;100095.38;5130541;27;20031;-56
2023/03/24 08:26:15;;;;;;;16.83;6.50;;;;;;;12.02;78.35;100089.63;5131370;27;20504;-56
2023/03/24 08:28:41;;;;;;;14.73;6.65;;;;;;;12.23;77.69;100087.03;5134372;27;20047;-56
2023/03/24 08:31:07;;;;;;;14.05;6.35;;;;;;;12.35;75.15;100079.00;5133858;27;20027;-57
2023/03/24 08:33:33;;;;;;;12.63;6.45;;;;;;;12.50;74.39;100099.91;5115489;27;20042;-56
2023/03/24 08:35:59;;;;;;;17.77;7.07;;;;;;;12.66;74.92;100107.47;5133082;27;20023;-57
2023/03/24 08:38:31;;;;;;;14.35;6.15;;;;;;;12.67;74.17;100106.50;5145038;27;20432;-57
2023/03/24 08:41:00;;;;;;;19.20;6.72;;;;;;;12.68;73.33;100105.53;5154316;27;20488;-56
2023/03/24 08:43:27;;;;;;;14.63;6.07;;;;;;;12.68;72.00;100113.53;5154445;27;20019;-57
2023/03/24 08:45:53;;;;;;;15.48;5.32;;;;;;;12.49;70.24;100126.69;5135713;27;20042;-57
2023/03/24 08:48:18;;;;;;;18.90;6.65;;;;;;;12.45;72.33;100120.78;5149797;27;20031;-56
2023/03/24 08:50:44;;;;;;;16.02;5.75;;;;;;;12.31;71.80;100117.56;5134525;27;20096;-56
2023/03/24 08:53:12;;;;;;;14.52;5.57;;;;;;;12.18;74.35;100104.41;5134698;27;20019;-57
2023/03/24 08:55:40;;;;;;;15.55;5.53;;;;;;;12.09;74.56;100122.00;5116384;27;20381;-57
2023/03/24 08:58:07;;;;;;;13.88;5.80;;;;;;;11.98;73.90;100122.00;5146012;27;20425;-56
2023/03/24 09:00:32;;;;;;;12.38;5.82;;;;;;;11.87;74.22;100130.84;5135992;27;20026;-56
2023/03/24 09:02:59;;;;;;;11.52;5.38;;;;;;;11.79;73.85;100122.59;5136151;27;20422;-57
2023/03/24 09:05:25;;;;;;;16.10;6.13;;;;;;;11.80;75.25;100121.63;5154972;27;20091;-57
2023/03/24 09:07:51;;;;;;;15.90;6.97;;;;;;;11.72;75.00;100124.06;5152532;27;20027;-57
2023/03/24 09:10:17;;;;;;;14.18;6.68;;;;;;;11.83;74.60;100130.22;5154912;27;20555;-57
2023/03/24 09:12:44;;;;;;;12.65;5.97;;;;;;;11.89;75.20;100130.75;5154736;27;20030;-57
2023/03/24 09:15:11;;;;;;;13.70;6.22;;;;;;;11.94;75.49;100131.19;5154442;27;20027;-56
2023/03/24 09:17:40;;;;;;;16.58;6.15;;;;;;;11.96;73.67;100131.94;5144618;27;20474;-56
2023/03/24 09:20:10;;;;;;;15.10;6.53;;;;;;;12.01;75.23;100135.09;5115490;27;20062;-57
2023/03/24 09:22:38;;;;;;;14.20;5.55;;;;;;;11.97;74.75;100131.81;5134057;27;20027;-56
2023/03/24 09:25:04;;;;;;;15.90;5.60;;;;;;;11.89;75.48;100138.75;5133591;27;20102;-57
2023/03/24 09:27:29;;;;;;;18.63;6.35;;;;;;;11.82;74.27;100146.31;5134457;27;20154;-56
2023/03/24 09:29:55;;;;;;;15.60;6.35;;;;;;;11.86;75.78;100134.50;5133141;27;20083;-56
2023/03/24 09:32:22;;;;;;;15.88;7.40;;;;;;;12.03;76.94;100160.66;5133653;27;20087;-56
2023/03/24 09:34:48;;;;;;;16.00;6.57;;;;;;;12.12;74.48;100145.72;5133474;27;20026;-57
2023/03/24 09:37:16;;;;;;;14.18;5.80;;;;;;;12.42;72.55;100162.88;5142158;27;20030;-57
2023/03/24 09:39:41;;;;;;;13.85;5.68;;;;;;;12.53;73.87;100159.28;5136228;27;20027;-56
2023/03/24 09:42:19;;;;;;;14.93;6.15;;;;;;;12.41;72.98;100166.50;5153670;27;20590;-56
2023/03/24 09:44:50;;;;;;;16.50;6.22;;;;;;;12.07;74.39;100161.25;5135118;27;20056;-56
2023/03/24 09:47:32;;;;;;;19.88;6.45;;;;;;;11.93;75.97;100135.69;5137151;27;20031;-57
2023/03/24 09:50:02;;;;;;;16.30;6.80;;;;;;;12.10;75.91;100166.31;5114885;27;20035;-56
2023/03/24 09:52:39;;;;;;;17.17;6.38;;;;;;;12.03;74.79;100165.13;5114761;27;20023;-56
2023/03/24 09:55:13;;;;;;;11.35;6.00;;;;;;;12.12;74.03;100163.50;5132946;27;20608;-56
2023/03/24 09:57:47;;;;;;;15.05;5.47;;;;;;;12.17;75.56;100148.84;5119819;27;20485;-56
2023/03/24 10:00:25;;;;;;;13.10;5.68;;;;;;;12.18;74.70;100165.72;5114305;27;20090;-56
2023/03/24 10:02:51;;;;;;;15.20;5.80;;;;;;;12.17;74.65;100172.00;5114788;27;20096;-56
2023/03/24 10:05:23;;;;;;;15.02;5.30;;;;;;;12.14;72.11;100167.75;5114488;27;20105;-57
2023/03/24 10:07:56;;;;;;;14.25;5.90;;;;;;;12.19;72.23;100170.06;5135831;27;20023;-56
2023/03/24 10:11:00;;;;;;;16.40;6.70;;;;;;;12.20;72.25;100169.94;5132831;27;20034;-57
2023/03/24 10:13:46;;;;;;;16.77;5.85;;;;;;;12.25;72.15;100166.91;5132997;27;20023;-56
2023/03/24 10:16:28;;;;;;;15.93;6.50;;;;;;;12.26;71.24;100168.59;5133793;27;20377;-57
2023/03/24 10:19:16;;;;;;;15.40;5.65;;;;;;;12.41;70.28;100180.69;5133027;27;20092;-56
2023/03/24 10:21:53;;;;;;;13.50;6.35;;;;;;;12.34;71.36;100182.16;5133572;27;20425;-56
2023/03/24 10:24:36;;;;;;;14.50;5.55;;;;;;;12.42;71.67;100173.53;5132353;27;20027;-56
2023/03/24 10:27:15;;;;;;;13.52;6.35;;;;;;;12.54;70.39;100177.84;5133749;27;20051;-56
2023/03/24 10:29:42;;;;;;;15.45;5.75;;;;;;;12.57;68.72;100169.59;5132456;27;20507;-56
2023/03/24 10:32:24;;;;;;;10.35;4.65;;;;;;;13.08;68.52;100176.06;5146739;27;20025;-56
2023/03/24 10:34:59;;;;;;;8.38;3.80;;;;;;;13.41;66.83;100185.72;5153400;27;20030;-56
2023/03/24 10:37:29;;;;;;;10.55;4.43;;;;;;;13.63;65.73;100180.22;5153633;27;20023;-57
2023/03/24 10:39:54;;;;;;;10.40;4.03;;;;;;;13.52;63.87;100174.97;5153116;27;20083;-56
2023/03/24 10:42:25;;;;;;;14.90;4.38;;;;;;;13.34;64.93;100174.72;5132862;27;20046;-57
2023/03/24 10:44:51;;;;;;;12.60;5.30;;;;;;;13.22;64.12;100183.75;5152264;27;20437;-56
2023/03/24 10:47:29;;;;;;;10.15;4.90;;;;;;;13.25;65.34;100175.50;5134667;27;20027;-57
2023/03/24 10:49:54;;;;;;;9.63;5.00;;;;;;;13.21;66.64;100181.19;5153116;27;20287;-56
2023/03/24 10:52:19;;;;;;;10.50;5.28;;;;;;;13.20;66.90;100169.66;5144836;27;20031;-56
2023/03/24 10:54:57;;;;;;;10.60;5.45;;;;;;;13.13;66.50;100166.69;5113680;28;20095;-57
2023/03/24 10:57:25;;;;;;;11.20;5.20;;;;;;;13.15;67.71;100178.09;5132299;27;20110;-56
2023/03/24 10:59:58;;;;;;;7.97;4.35;;;;;;;13.46;65.82;100180.00;5135769;27;20043;-56
2023/03/24 11:02:31;;;;;;;9.85;4.32;;;;;;;13.70;64.70;100171.69;5122635;27;20381;-57
2023/03/24 11:05:15;;;;;;;15.90;4.80;;;;;;;14.13;63.77;100174.09;5157419;27;20075;-57
2023/03/24 11:07:45;;;;;;;8.23;4.20;;;;;;;14.34;62.74;100182.03;5138615;27;20038;-57
2023/03/24 11:10:14;;;;;;;9.77;4.20;;;;;;;14.32;61.67;100173.28;5157377;27;20090;-57
2023/03/24 11:12:58;;;;;;;13.13;4.05;;;;;;;14.21;62.03;100160.06;5155721;27;20033;-56
2023/03/24 11:15:31;;;;;;;11.55;4.28;;;;;;;14.00;61.94;100176.16;5138162;27;20023;-56
2023/03/24 11:18:10;;;;;;;10.95;3.78;;;;;;;13.91;61.71;100177.81;5138397;27;20037;-57
2023/03/24 11:20:46;;;;;;;14.13;4.30;;;;;;;13.82;60.86;100192.84;5157072;27;20042;-57
2023/03/24 11:23:44;;;;;;;10.85;4.32;;;;;;;14.03;61.79;100175.88;5143554;27;20031;-57
2023/03/24 11:26:20;;;;;;;11.00;3.90;;;;;;;14.09;60.47;100175.38;5078701;27;20126;-57
2023/03/24 11:28:53;;;;;;;8.93;3.75;;;;;;;14.16;60.00;100175.66;5136011;27;20071;-57
2023/03/24 11:31:24;;;;;;;10.98;4.35;;;;;;;13.77;60.67;100164.84;5135718;27;20043;-57
2023/03/24 11:34:02;;;;;;;14.15;4.38;;;;;;;13.61;61.51;100168.81;5117832;27;20037;-57
2023/03/24 11:36:31;;;;;;;9.90;4.85;;;;;;;13.52;61.66;100176.78;5135789;27;20041;-57
2023/03/24 11:39:11;;;;;;;11.68;4.85;;;;;;;13.44;62.52;100171.25;5136064;27;20062;-57
2023/03/24 11:41:41;;;;;;;12.38;4.20;;;;;;;13.22;64.27;100170.41;5139621;27;20038;-57